sensor_id;sensor_type;location;lat;lon;timestamp;pressure;altitude;pressure_sealevel;temperature;humidity
26443;BME280;5563;52.296;6.806;2023-01-29T00:01:16;102924.50;;;0.91;76.21
26443;BME280;5563;52.296;6.806;2023-01-29T00:03:50;102912.25;;;0.90;75.87
26443;BME280;5563;52.296;6.806;2023-01-29T00:06:23;102908.78;;;0.88;76.36
26443;BME280;5563;52.296;6.806;2023-01-29T00:08:50;102905.25;;;0.89;76.51
26443;BME280;5563;52.296;6.806;2023-01-29T00:11:23;102915.78;;;0.87;76.33
26443;BME280;5563;52.296;6.806;2023-01-29T00:13:51;102919.25;;;0.89;76.03
26443;BME280;5563;52.296;6.806;2023-01-29T00:16:25;102914.03;;;0.88;76.08
26443;BME280;5563;52.296;6.806;2023-01-29T00:18:51;102900.94;;;0.85;75.99
26443;BME280;5563;52.296;6.806;2023-01-29T00:21:32;102892.19;;;0.84;76.06
26443;BME280;5563;52.296;6.806;2023-01-29T00:24:06;102893.94;;;0.82;76.53
26443;BME280;5563;52.296;6.806;2023-01-29T00:26:38;102897.38;;;0.87;76.54
26443;BME280;5563;52.296;6.806;2023-01-29T00:29:11;102888.69;;;0.82;76.63
26443;BME280;5563;52.296;6.806;2023-01-29T00:31:38;102889.53;;;0.86;76.62
26443;BME280;5563;52.296;6.806;2023-01-29T00:34:12;102894.78;;;0.86;76.26
26443;BME280;5563;52.296;6.806;2023-01-29T00:36:44;102882.56;;;0.85;76.66
26443;BME280;5563;52.296;6.806;2023-01-29T00:39:11;102861.59;;;0.79;76.57
26443;BME280;5563;52.296;6.806;2023-01-29T00:41:45;102872.03;;;0.83;76.61
26443;BME280;5563;52.296;6.806;2023-01-29T00:44:36;102854.56;;;0.81;77.06
26443;BME280;5563;52.296;6.806;2023-01-29T00:47:28;102849.31;;;0.81;76.98
26443;BME280;5563;52.296;6.806;2023-01-29T00:50:09;102852.81;;;0.81;77.28
26443;BME280;5563;52.296;6.806;2023-01-29T00:52:37;102851.94;;;0.81;77.17
26443;BME280;5563;52.296;6.806;2023-01-29T00:55:12;102852.81;;;0.81;76.64
26443;BME280;5563;52.296;6.806;2023-01-29T00:57:40;102851.94;;;0.82;76.66
26443;BME280;5563;52.296;6.806;2023-01-29T01:00:15;102848.41;;;0.82;76.91
26443;BME280;5563;52.296;6.806;2023-01-29T01:02:49;102852.81;;;0.81;77.09
26443;BME280;5563;52.296;6.806;2023-01-29T01:05:39;102847.56;;;0.80;76.80
26443;BME280;5563;52.296;6.806;2023-01-29T01:08:06;102854.59;;;0.78;77.14
26443;BME280;5563;52.296;6.806;2023-01-29T01:11:01;102838.00;;;0.73;77.25
26443;BME280;5563;52.296;6.806;2023-01-29T01:13:30;102860.69;;;0.80;77.16
26443;BME280;5563;52.296;6.806;2023-01-29T01:16:12;102865.94;;;0.81;76.84
26443;BME280;5563;52.296;6.806;2023-01-29T01:18:46;102841.47;;;0.75;76.82
26443;BME280;5563;52.296;6.806;2023-01-29T01:21:18;102838.00;;;0.73;76.86
26443;BME280;5563;52.296;6.806;2023-01-29T01:23:51;102844.09;;;0.78;76.75
26443;BME280;5563;52.296;6.806;2023-01-29T01:26:19;102854.59;;;0.79;77.31
26443;BME280;5563;52.296;6.806;2023-01-29T01:28:51;102842.34;;;0.77;77.11
26443;BME280;5563;52.296;6.806;2023-01-29T01:31:24;102859.84;;;0.79;77.19
26443;BME280;5563;52.296;6.806;2023-01-29T01:33:58;102848.47;;;0.77;77.02
26443;BME280;5563;52.296;6.806;2023-01-29T01:36:31;102856.34;;;0.79;77.11
26443;BME280;5563;52.296;6.806;2023-01-29T01:38:57;102861.59;;;0.79;76.97
26443;BME280;5563;52.296;6.806;2023-01-29T01:41:30;102853.66;;;0.82;77.89
26443;BME280;5563;52.296;6.806;2023-01-29T01:43:59;102860.69;;;0.81;77.33
26443;BME280;5563;52.296;6.806;2023-01-29T01:46:35;102828.44;;;0.69;77.39
26443;BME280;5563;52.296;6.806;2023-01-29T01:49:13;102843.22;;;0.79;77.59
26443;BME280;5563;52.296;6.806;2023-01-29T01:51:49;102838.81;;;0.81;77.72
26443;BME280;5563;52.296;6.806;2023-01-29T01:54:18;102847.56;;;0.80;77.98
26443;BME280;5563;52.296;6.806;2023-01-29T01:56:56;102851.03;;;0.82;77.93
26443;BME280;5563;52.296;6.806;2023-01-29T01:59:31;102845.84;;;0.79;78.09
26443;BME280;5563;52.296;6.806;2023-01-29T02:02:13;102854.53;;;0.84;77.58
26443;BME280;5563;52.296;6.806;2023-01-29T02:05:13;102867.66;;;0.84;77.68
26443;BME280;5563;52.296;6.806;2023-01-29T02:08:05;102867.66;;;0.84;77.52
26443;BME280;5563;52.296;6.806;2023-01-29T02:10:57;102867.69;;;0.82;77.52
26443;BME280;5563;52.296;6.806;2023-01-29T02:13:29;102865.06;;;0.82;77.79
26443;BME280;5563;52.296;6.806;2023-01-29T02:15:56;102853.66;;;0.82;77.53
26443;BME280;5563;52.296;6.806;2023-01-29T02:18:29;102864.19;;;0.82;77.50
26443;BME280;5563;52.296;6.806;2023-01-29T02:21:40;102860.72;;;0.77;77.73
26443;BME280;5563;52.296;6.806;2023-01-29T02:24:38;102873.81;;;0.83;77.59
26443;BME280;5563;52.296;6.806;2023-01-29T02:32:58;102876.47;;;0.81;77.62
26443;BME280;5563;52.296;6.806;2023-01-29T02:35:39;102884.34;;;0.81;77.85
26443;BME280;5563;52.296;6.806;2023-01-29T02:46:34;102893.09;;;0.79;77.82
26443;BME280;5563;52.296;6.806;2023-01-29T02:52:01;102883.50;;;0.78;77.83
26443;BME280;5563;52.296;6.806;2023-01-29T02:54:45;102886.94;;;0.80;77.85
26443;BME280;5563;52.296;6.806;2023-01-29T02:57:25;102885.19;;;0.80;78.04
26443;BME280;5563;52.296;6.806;2023-01-29T03:00:07;102886.09;;;0.79;78.30
26443;BME280;5563;52.296;6.806;2023-01-29T03:03:27;102884.31;;;0.80;78.31
26443;BME280;5563;52.296;6.806;2023-01-29T03:06:23;102878.25;;;0.78;78.34
26443;BME280;5563;52.296;6.806;2023-01-29T03:12:24;102872.97;;;0.78;78.31
26443;BME280;5563;52.296;6.806;2023-01-29T03:15:10;102862.50;;;0.75;78.40
26443;BME280;5563;52.296;6.806;2023-01-29T03:18:02;102859.00;;;0.74;78.47
26443;BME280;5563;52.296;6.806;2023-01-29T03:20:45;102850.19;;;0.80;78.85
26443;BME280;5563;52.296;6.806;2023-01-29T03:23:19;102844.94;;;0.80;78.60
26443;BME280;5563;52.296;6.806;2023-01-29T03:26:10;102819.63;;;0.73;78.83
26443;BME280;5563;52.296;6.806;2023-01-29T03:28:58;102820.47;;;0.79;79.59
26443;BME280;5563;52.296;6.806;2023-01-29T03:31:54;102823.94;;;0.78;79.00
26443;BME280;5563;52.296;6.806;2023-01-29T03:34:47;102810.84;;;0.77;78.96
26443;BME280;5563;52.296;6.806;2023-01-29T03:37:35;102807.34;;;0.76;79.30
26443;BME280;5563;52.296;6.806;2023-01-29T03:40:04;102811.69;;;0.79;79.46
26443;BME280;5563;52.296;6.806;2023-01-29T03:45:38;102824.84;;;0.77;79.41
26443;BME280;5563;52.296;6.806;2023-01-29T03:59:39;102786.34;;;0.75;79.44
26443;BME280;5563;52.296;6.806;2023-01-29T04:02:15;102798.56;;;0.79;79.36
26443;BME280;5563;52.296;6.806;2023-01-29T04:05:05;102795.09;;;0.75;79.11
26443;BME280;5563;52.296;6.806;2023-01-29T04:07:43;102783.72;;;0.76;79.64
26443;BME280;5563;52.296;6.806;2023-01-29T04:10:17;102778.47;;;0.76;79.68
26443;BME280;5563;52.296;6.806;2023-01-29T04:12:58;102768.88;;;0.74;79.93
26443;BME280;5563;52.296;6.806;2023-01-29T04:15:28;102768.88;;;0.74;79.76
26443;BME280;5563;52.296;6.806;2023-01-29T04:18:03;102775.00;;;0.74;80.23
26443;BME280;5563;52.296;6.806;2023-01-29T04:20:36;102767.13;;;0.74;79.74
26443;BME280;5563;52.296;6.806;2023-01-29T04:23:23;102771.47;;;0.75;79.65
26443;BME280;5563;52.296;6.806;2023-01-29T04:28:48;102767.97;;;0.76;79.47
26443;BME280;5563;52.296;6.806;2023-01-29T04:31:29;102777.59;;;0.77;79.47
26443;BME280;5563;52.296;6.806;2023-01-29T04:40:14;102761.03;;;0.72;80.03
26443;BME280;5563;52.296;6.806;2023-01-29T04:43:34;102761.88;;;0.74;80.07
26443;BME280;5563;52.296;6.806;2023-01-29T04:49:11;102753.16;;;0.71;80.06
26443;BME280;5563;52.296;6.806;2023-01-29T05:00:12;102752.31;;;0.69;79.95
26443;BME280;5563;52.296;6.806;2023-01-29T05:02:44;102750.59;;;0.63;79.82
26443;BME280;5563;52.296;6.806;2023-01-29T05:05:19;102762.81;;;0.67;79.80
26443;BME280;5563;52.296;6.806;2023-01-29T05:07:47;102758.44;;;0.66;79.67
26443;BME280;5563;52.296;6.806;2023-01-29T05:10:22;102760.19;;;0.66;79.72
26443;BME280;5563;52.296;6.806;2023-01-29T05:12:55;102759.34;;;0.65;79.93
26443;BME280;5563;52.296;6.806;2023-01-29T05:15:39;102746.25;;;0.61;79.87
26443;BME280;5563;52.296;6.806;2023-01-29T05:18:08;102755.84;;;0.65;79.62
26443;BME280;5563;52.296;6.806;2023-01-29T05:20:43;102755.84;;;0.65;80.00
26443;BME280;5563;52.296;6.806;2023-01-29T05:23:20;102763.72;;;0.65;79.68
26443;BME280;5563;52.296;6.806;2023-01-29T05:25:49;102744.53;;;0.60;79.56
26443;BME280;5563;52.296;6.806;2023-01-29T05:28:24;102749.72;;;0.64;79.86
26443;BME280;5563;52.296;6.806;2023-01-29T05:30:53;102758.44;;;0.66;79.89
26443;BME280;5563;52.296;6.806;2023-01-29T05:33:29;102756.69;;;0.67;79.86
26443;BME280;5563;52.296;6.806;2023-01-29T05:36:04;102760.19;;;0.66;80.11
26443;BME280;5563;52.296;6.806;2023-01-29T05:38:32;102763.69;;;0.68;80.23
26443;BME280;5563;52.296;6.806;2023-01-29T05:41:06;102775.94;;;0.69;80.10
26443;BME280;5563;52.296;6.806;2023-01-29T05:43:35;102773.31;;;0.69;79.84
26443;BME280;5563;52.296;6.806;2023-01-29T05:46:09;102771.53;;;0.71;79.89
26443;BME280;5563;52.296;6.806;2023-01-29T05:48:43;102760.19;;;0.69;79.73
26443;BME280;5563;52.296;6.806;2023-01-29T05:51:10;102761.88;;;0.73;79.78
26443;BME280;5563;52.296;6.806;2023-01-29T05:53:44;102751.38;;;0.71;79.64
26443;BME280;5563;52.296;6.806;2023-01-29T05:56:11;102737.41;;;0.71;79.41
26443;BME280;5563;52.296;6.806;2023-01-29T05:58:45;102723.44;;;0.69;79.81
26443;BME280;5563;52.296;6.806;2023-01-29T06:01:13;102733.00;;;0.73;79.84
26443;BME280;5563;52.296;6.806;2023-01-29T06:03:51;102733.00;;;0.71;79.92
26443;BME280;5563;52.296;6.806;2023-01-29T06:06:25;102735.69;;;0.68;79.85
26443;BME280;5563;52.296;6.806;2023-01-29T06:09:00;102737.44;;;0.68;80.10
26443;BME280;5563;52.296;6.806;2023-01-29T06:11:35;102737.41;;;0.69;80.16
26443;BME280;5563;52.296;6.806;2023-01-29T06:14:01;102710.38;;;0.63;80.02
26443;BME280;5563;52.296;6.806;2023-01-29T06:16:53;102726.94;;;0.66;80.28
26443;BME280;5563;52.296;6.806;2023-01-29T06:19:20;102742.66;;;0.69;80.08
26443;BME280;5563;52.296;6.806;2023-01-29T06:21:54;102733.03;;;0.70;79.98
26443;BME280;5563;52.296;6.806;2023-01-29T06:24:21;102736.56;;;0.66;79.90
26443;BME280;5563;52.296;6.806;2023-01-29T06:26:55;102723.53;;;0.57;79.54
26443;BME280;5563;52.296;6.806;2023-01-29T06:29:34;102722.66;;;0.59;79.87
26443;BME280;5563;52.296;6.806;2023-01-29T06:32:09;102716.50;;;0.63;79.84
26443;BME280;5563;52.296;6.806;2023-01-29T06:34:46;102700.81;;;0.56;79.71
26443;BME280;5563;52.296;6.806;2023-01-29T06:37:19;102712.13;;;0.64;79.91
26443;BME280;5563;52.296;6.806;2023-01-29T06:39:47;102691.19;;;0.53;80.05
26443;BME280;5563;52.296;6.806;2023-01-29T06:42:21;102725.19;;;0.68;79.72
26443;BME280;5563;52.296;6.806;2023-01-29T06:44:54;102737.41;;;0.71;80.03
26443;BME280;5563;52.296;6.806;2023-01-29T06:47:28;102732.16;;;0.69;79.89
26443;BME280;5563;52.296;6.806;2023-01-29T06:49:55;102716.44;;;0.66;79.93
26443;BME280;5563;52.296;6.806;2023-01-29T06:52:22;102724.28;;;0.71;80.13
26443;BME280;5563;52.296;6.806;2023-01-29T06:55:01;102716.41;;;0.69;79.62
26443;BME280;5563;52.296;6.806;2023-01-29T06:57:28;102705.94;;;0.68;79.91
26443;BME280;5563;52.296;6.806;2023-01-29T07:00:03;102720.81;;;0.69;80.34
26443;BME280;5563;52.296;6.806;2023-01-29T07:02:37;102716.41;;;0.69;80.17
26443;BME280;5563;52.296;6.806;2023-01-29T07:05:11;102705.94;;;0.66;80.07
26443;BME280;5563;52.296;6.806;2023-01-29T07:07:42;102718.19;;;0.69;79.79
26443;BME280;5563;52.296;6.806;2023-01-29T07:10:16;102719.06;;;0.68;80.16
26443;BME280;5563;52.296;6.806;2023-01-29T07:12:44;102715.63;;;0.63;79.86
26443;BME280;5563;52.296;6.806;2023-01-29T07:15:19;102724.34;;;0.65;79.81
26443;BME280;5563;52.296;6.806;2023-01-29T07:18:01;102718.22;;;0.64;79.87
26443;BME280;5563;52.296;6.806;2023-01-29T07:20:40;102726.09;;;0.63;79.88
26443;BME280;5563;52.296;6.806;2023-01-29T07:23:18;102733.97;;;0.63;79.54
26443;BME280;5563;52.296;6.806;2023-01-29T07:25:46;102742.72;;;0.65;80.07
26443;BME280;5563;52.296;6.806;2023-01-29T07:28:22;102735.72;;;0.65;79.65
26443;BME280;5563;52.296;6.806;2023-01-29T07:30:57;102718.25;;;0.63;79.86
26443;BME280;5563;52.296;6.806;2023-01-29T07:33:31;102720.84;;;0.63;80.16
26443;BME280;5563;52.296;6.806;2023-01-29T07:35:58;102714.75;;;0.64;79.88
26443;BME280;5563;52.296;6.806;2023-01-29T07:38:32;102716.47;;;0.65;79.85
26443;BME280;5563;52.296;6.806;2023-01-29T07:40:59;102715.56;;;0.66;79.89
26443;BME280;5563;52.296;6.806;2023-01-29T07:43:34;102713.03;;;0.60;79.82
26443;BME280;5563;52.296;6.806;2023-01-29T07:46:02;102714.69;;;0.67;79.75
26443;BME280;5563;52.296;6.806;2023-01-29T07:48:37;102705.94;;;0.68;79.66
26443;BME280;5563;52.296;6.806;2023-01-29T07:51:06;102702.44;;;0.69;79.73
26443;BME280;5563;52.296;6.806;2023-01-29T07:53:42;102705.91;;;0.71;79.75
26443;BME280;5563;52.296;6.806;2023-01-29T07:56:10;102700.66;;;0.72;79.51
26443;BME280;5563;52.296;6.806;2023-01-29T07:58:44;102692.78;;;0.71;79.44
26443;BME280;5563;52.296;6.806;2023-01-29T08:01:11;102684.91;;;0.71;79.25
26443;BME280;5563;52.296;6.806;2023-01-29T08:03:51;102689.28;;;0.72;79.61
26443;BME280;5563;52.296;6.806;2023-01-29T08:06:19;102680.50;;;0.73;79.16
26443;BME280;5563;52.296;6.806;2023-01-29T08:08:52;102684.88;;;0.74;79.39
26443;BME280;5563;52.296;6.806;2023-01-29T08:11:21;102674.34;;;0.75;79.31
26443;BME280;5563;52.296;6.806;2023-01-29T08:13:55;102669.09;;;0.75;79.31
26443;BME280;5563;52.296;6.806;2023-01-29T08:16:22;102664.69;;;0.79;79.37
26443;BME280;5563;52.296;6.806;2023-01-29T08:18:56;102675.16;;;0.80;79.16
26443;BME280;5563;52.296;6.806;2023-01-29T08:21:29;102658.53;;;0.80;79.45
26443;BME280;5563;52.296;6.806;2023-01-29T08:23:55;102654.13;;;0.82;79.20
26443;BME280;5563;52.296;6.806;2023-01-29T08:26:29;102660.28;;;0.81;79.49
26443;BME280;5563;52.296;6.806;2023-01-29T08:28:55;102645.44;;;0.78;79.41
26443;BME280;5563;52.296;6.806;2023-01-29T08:31:29;102655.00;;;0.82;79.11
26443;BME280;5563;52.296;6.806;2023-01-29T08:33:55;102656.69;;;0.88;79.16
26443;BME280;5563;52.296;6.806;2023-01-29T08:36:29;102658.44;;;0.90;79.18
26443;BME280;5563;52.296;6.806;2023-01-29T08:38:55;102664.50;;;0.92;78.98
26443;BME280;5563;52.296;6.806;2023-01-29T08:41:29;102660.19;;;0.90;78.85
26443;BME280;5563;52.296;6.806;2023-01-29T08:44:02;102651.38;;;0.94;78.58
26443;BME280;5563;52.296;6.806;2023-01-29T08:46:36;102642.66;;;0.92;78.64
26443;BME280;5563;52.296;6.806;2023-01-29T08:49:09;102634.75;;;0.93;78.57
26443;BME280;5563;52.296;6.806;2023-01-29T08:51:35;102640.78;;;1.00;78.36
26443;BME280;5563;52.296;6.806;2023-01-29T08:54:09;102639.88;;;1.04;78.53
26443;BME280;5563;52.296;6.806;2023-01-29T08:56:35;102624.28;;;0.92;78.41
26443;BME280;5563;52.296;6.806;2023-01-29T08:59:09;102654.78;;;1.02;78.37
26443;BME280;5563;52.296;6.806;2023-01-29T09:01:36;102643.47;;;0.97;78.12
26443;BME280;5563;52.296;6.806;2023-01-29T09:04:09;102655.56;;;1.07;78.19
26443;BME280;5563;52.296;6.806;2023-01-29T09:06:49;102651.19;;;1.09;78.26
26443;BME280;5563;52.296;6.806;2023-01-29T09:09:15;102651.13;;;1.12;78.29
26443;BME280;5563;52.296;6.806;2023-01-29T09:11:49;102659.84;;;1.17;78.16
26443;BME280;5563;52.296;6.806;2023-01-29T09:14:22;102664.16;;;1.20;78.16
26443;BME280;5563;52.296;6.806;2023-01-29T09:16:56;102654.50;;;1.22;78.06
26443;BME280;5563;52.296;6.806;2023-01-29T09:19:23;102652.75;;;1.22;77.98
26443;BME280;5563;52.296;6.806;2023-01-29T09:21:57;102652.72;;;1.24;77.90
26443;BME280;5563;52.296;6.806;2023-01-29T09:24:23;102652.72;;;1.25;77.81
26443;BME280;5563;52.296;6.806;2023-01-29T09:26:57;102658.81;;;1.27;77.99
26443;BME280;5563;52.296;6.806;2023-01-29T09:29:24;102652.66;;;1.28;78.12
26443;BME280;5563;52.296;6.806;2023-01-29T09:31:59;102650.84;;;1.32;78.15
26443;BME280;5563;52.296;6.806;2023-01-29T09:34:26;102638.66;;;1.29;77.75
26443;BME280;5563;52.296;6.806;2023-01-29T09:37:00;102654.31;;;1.35;77.80
26443;BME280;5563;52.296;6.806;2023-01-29T09:39:27;102651.72;;;1.34;77.54
26443;BME280;5563;52.296;6.806;2023-01-29T09:42:24;102656.00;;;1.39;77.51
26443;BME280;5563;52.296;6.806;2023-01-29T09:45:10;102651.63;;;1.40;77.76
26443;BME280;5563;52.296;6.806;2023-01-29T09:47:39;102650.72;;;1.44;77.53
26443;BME280;5563;52.296;6.806;2023-01-29T09:50:18;102636.72;;;1.40;77.46
26443;BME280;5563;52.296;6.806;2023-01-29T09:53:06;102647.13;;;1.48;77.43
26443;BME280;5563;52.296;6.806;2023-01-29T09:55:41;102641.84;;;1.49;77.40
26443;BME280;5563;52.296;6.806;2023-01-29T09:58:28;102637.41;;;1.53;77.53
26443;BME280;5563;52.296;6.806;2023-01-29T10:09:58;102627.63;;;1.62;76.70
26443;BME280;5563;52.296;6.806;2023-01-29T10:23:48;102600.41;;;1.66;76.45
26443;BME280;5563;52.296;6.806;2023-01-29T10:26:26;102603.03;;;1.66;76.82
26443;BME280;5563;52.296;6.806;2023-01-29T10:28:56;102596.84;;;1.69;76.43
26443;BME280;5563;52.296;6.806;2023-01-29T10:31:32;102599.50;;;1.67;76.54
26443;BME280;5563;52.296;6.806;2023-01-29T10:34:06;102574.22;;;1.59;76.87
26443;BME280;5563;52.296;6.806;2023-01-29T10:36:45;102587.25;;;1.66;76.41
26443;BME280;5563;52.296;6.806;2023-01-29T10:39:19;102587.13;;;1.72;76.79
26443;BME280;5563;52.296;6.806;2023-01-29T10:42:13;102592.41;;;1.74;76.46
26443;BME280;5563;52.296;6.806;2023-01-29T10:55:42;102568.69;;;1.75;76.31
26443;BME280;5563;52.296;6.806;2023-01-29T10:58:35;102572.19;;;1.77;76.40
26443;BME280;5563;52.296;6.806;2023-01-29T11:01:03;102551.13;;;1.76;76.29
26443;BME280;5563;52.296;6.806;2023-01-29T11:03:37;102547.59;;;1.78;75.99
26443;BME280;5563;52.296;6.806;2023-01-29T11:06:16;102540.63;;;1.76;76.50
26443;BME280;5563;52.296;6.806;2023-01-29T11:11:46;102543.09;;;1.85;76.51
26443;BME280;5563;52.296;6.806;2023-01-29T11:14:27;102537.78;;;1.89;76.51
26443;BME280;5563;52.296;6.806;2023-01-29T11:17:02;102532.44;;;1.92;76.53
26443;BME280;5563;52.296;6.806;2023-01-29T11:19:41;102519.31;;;1.91;76.39
26443;BME280;5563;52.296;6.806;2023-01-29T11:22:19;102523.63;;;1.93;76.09
26443;BME280;5563;52.296;6.806;2023-01-29T11:25:09;102523.56;;;1.98;76.20
26443;BME280;5563;52.296;6.806;2023-01-29T11:27:51;102522.66;;;2.00;76.12
26443;BME280;5563;52.296;6.806;2023-01-29T11:35:38;102496.25;;;2.05;76.01
26443;BME280;5563;52.296;6.806;2023-01-29T11:38:07;102504.03;;;2.11;76.03
26443;BME280;5563;52.296;6.806;2023-01-29T11:40:42;102464.03;;;1.94;75.79
26443;BME280;5563;52.296;6.806;2023-01-29T11:43:27;102483.00;;;2.11;76.08
26443;BME280;5563;52.296;6.806;2023-01-29T11:46:04;102476.91;;;2.09;76.09
26443;BME280;5563;52.296;6.806;2023-01-29T11:48:49;102482.09;;;2.12;75.87
26443;BME280;5563;52.296;6.806;2023-01-29T11:51:50;102489.88;;;2.18;76.21
26443;BME280;5563;52.296;6.806;2023-01-29T11:54:18;102474.09;;;2.16;75.74
26443;BME280;5563;52.296;6.806;2023-01-29T11:56:52;102476.72;;;2.18;75.98
26443;BME280;5563;52.296;6.806;2023-01-29T11:59:40;102469.63;;;2.22;76.10
26443;BME280;5563;52.296;6.806;2023-01-29T12:02:35;102450.41;;;2.16;75.68
26443;BME280;5563;52.296;6.806;2023-01-29T12:07:59;102454.56;;;2.28;75.75
26443;BME280;5563;52.296;6.806;2023-01-29T12:10:38;102445.78;;;2.28;76.13
26443;BME280;5563;52.296;6.806;2023-01-29T12:15:41;102435.22;;;2.31;75.86
26443;BME280;5563;52.296;6.806;2023-01-29T12:18:21;102424.66;;;2.32;76.01
26443;BME280;5563;52.296;6.806;2023-01-29T12:21:11;102426.38;;;2.33;76.12
26443;BME280;5563;52.296;6.806;2023-01-29T12:24:19;102422.81;;;2.36;76.13
26443;BME280;5563;52.296;6.806;2023-01-29T12:35:26;102407.88;;;2.36;75.78
26443;BME280;5563;52.296;6.806;2023-01-29T12:38:09;102409.63;;;2.37;75.98
26443;BME280;5563;52.296;6.806;2023-01-29T12:43:34;102398.22;;;2.37;75.89
26443;BME280;5563;52.296;6.806;2023-01-29T12:46:20;102395.50;;;2.41;75.81
26443;BME280;5563;52.296;6.806;2023-01-29T12:48:56;102384.09;;;2.41;75.82
26443;BME280;5563;52.296;6.806;2023-01-29T12:51:35;102385.78;;;2.45;76.00
26443;BME280;5563;52.296;6.806;2023-01-29T12:54:16;102376.09;;;2.45;75.83
26443;BME280;5563;52.296;6.806;2023-01-29T12:56:49;102361.28;;;2.41;75.96
26443;BME280;5563;52.296;6.806;2023-01-29T13:01:58;102355.81;;;2.49;75.66
26443;BME280;5563;52.296;6.806;2023-01-29T13:04:38;102336.69;;;2.42;76.00
26443;BME280;5563;52.296;6.806;2023-01-29T13:07:18;102334.94;;;2.43;75.67
26443;BME280;5563;52.296;6.806;2023-01-29T13:10:02;102351.31;;;2.54;76.10
26443;BME280;5563;52.296;6.806;2023-01-29T13:12:32;102335.59;;;2.51;76.23
26443;BME280;5563;52.296;6.806;2023-01-29T13:15:16;102336.34;;;2.56;75.96
26443;BME280;5563;52.296;6.806;2023-01-29T13:17:50;102332.81;;;2.57;76.31
26443;BME280;5563;52.296;6.806;2023-01-29T13:20:28;102321.47;;;2.55;75.98
26443;BME280;5563;52.296;6.806;2023-01-29T13:23:17;102334.50;;;2.59;76.09
26443;BME280;5563;52.296;6.806;2023-01-29T13:25:52;102327.47;;;2.60;76.14
26443;BME280;5563;52.296;6.806;2023-01-29T13:28:25;102317.09;;;2.54;75.69
26443;BME280;5563;52.296;6.806;2023-01-29T13:31:26;102316.91;;;2.61;76.02
26443;BME280;5563;52.296;6.806;2023-01-29T13:34:15;102310.81;;;2.61;76.18
26443;BME280;5563;52.296;6.806;2023-01-29T13:36:54;102283.88;;;2.50;76.11
26443;BME280;5563;52.296;6.806;2023-01-29T13:39:37;102285.47;;;2.55;76.13
26443;BME280;5563;52.296;6.806;2023-01-29T13:42:19;102296.66;;;2.63;76.33
26443;BME280;5563;52.296;6.806;2023-01-29T13:44:54;102287.00;;;2.64;76.22
26443;BME280;5563;52.296;6.806;2023-01-29T13:47:26;102289.59;;;2.65;75.99
26443;BME280;5563;52.296;6.806;2023-01-29T13:50:12;102284.38;;;2.64;76.34
26443;BME280;5563;52.296;6.806;2023-01-29T13:52:58;102283.50;;;2.63;76.10
26443;BME280;5563;52.296;6.806;2023-01-29T13:55:38;102279.22;;;2.59;76.44
26443;BME280;5563;52.296;6.806;2023-01-29T13:58:18;102270.56;;;2.54;76.51
26443;BME280;5563;52.296;6.806;2023-01-29T14:01:09;102274.03;;;2.56;77.12
26443;BME280;5563;52.296;6.806;2023-01-29T14:03:50;102274.00;;;2.58;76.70
26443;BME280;5563;52.296;6.806;2023-01-29T14:06:40;102280.19;;;2.57;77.26
26443;BME280;5563;52.296;6.806;2023-01-29T14:17:28;102273.16;;;2.56;77.50
26443;BME280;5563;52.296;6.806;2023-01-29T14:20:02;102268.84;;;2.53;77.85
26443;BME280;5563;52.296;6.806;2023-01-29T14:22:36;102265.41;;;2.51;78.03
26443;BME280;5563;52.296;6.806;2023-01-29T14:25:16;102259.31;;;2.49;78.35
26443;BME280;5563;52.296;6.806;2023-01-29T14:27:48;102254.06;;;2.48;78.68
26443;BME280;5563;52.296;6.806;2023-01-29T14:30:21;102256.75;;;2.46;78.71
26443;BME280;5563;52.296;6.806;2023-01-29T14:32:49;102249.69;;;2.47;79.10
26443;BME280;5563;52.296;6.806;2023-01-29T14:35:28;102252.28;;;2.50;79.03
26443;BME280;5563;52.296;6.806;2023-01-29T14:38:07;102250.47;;;2.50;78.81
26443;BME280;5563;52.296;6.806;2023-01-29T14:40:46;102236.53;;;2.47;78.87
26443;BME280;5563;52.296;6.806;2023-01-29T14:43:18;102225.13;;;2.48;78.63
26443;BME280;5563;52.296;6.806;2023-01-29T14:45:53;102243.41;;;2.52;78.76
26443;BME280;5563;52.296;6.806;2023-01-29T14:48:46;102231.03;;;2.56;79.07
26443;BME280;5563;52.296;6.806;2023-01-29T14:51:21;102227.53;;;2.57;78.71
26443;BME280;5563;52.296;6.806;2023-01-29T14:56:20;102211.72;;;2.57;79.41
26443;BME280;5563;52.296;6.806;2023-01-29T15:01:45;102183.97;;;2.44;79.17
26443;BME280;5563;52.296;6.806;2023-01-29T15:04:36;102206.28;;;2.64;78.89
26443;BME280;5563;52.296;6.806;2023-01-29T15:07:25;102195.97;;;2.55;78.79
26443;BME280;5563;52.296;6.806;2023-01-29T15:10:24;102203.78;;;2.58;78.79
26443;BME280;5563;52.296;6.806;2023-01-29T15:15:45;102198.44;;;2.61;79.05
26443;BME280;5563;52.296;6.806;2023-01-29T15:18:33;102193.22;;;2.60;78.95
26443;BME280;5563;52.296;6.806;2023-01-29T15:21:11;102195.84;;;2.60;79.08
26443;BME280;5563;52.296;6.806;2023-01-29T15:23:46;102179.31;;;2.55;78.87
26443;BME280;5563;52.296;6.806;2023-01-29T15:26:23;102195.84;;;2.60;78.92
26443;BME280;5563;52.296;6.806;2023-01-29T15:28:58;102196.81;;;2.57;78.99
26443;BME280;5563;52.296;6.806;2023-01-29T15:31:30;102194.16;;;2.57;79.31
26443;BME280;5563;52.296;6.806;2023-01-29T15:34:05;102168.09;;;2.47;79.33
26443;BME280;5563;52.296;6.806;2023-01-29T15:36:33;102186.28;;;2.56;79.56
26443;BME280;5563;52.296;6.806;2023-01-29T15:41:42;102166.34;;;2.47;79.93
26443;BME280;5563;52.296;6.806;2023-01-29T15:44:21;102168.16;;;2.45;80.20
26443;BME280;5563;52.296;6.806;2023-01-29T15:46:59;102139.56;;;2.32;80.28
26443;BME280;5563;52.296;6.806;2023-01-29T15:49:34;102154.28;;;2.39;80.40
26443;BME280;5563;52.296;6.806;2023-01-29T15:52:04;102153.50;;;2.35;80.51
26443;BME280;5563;52.296;6.806;2023-01-29T15:54:39;102159.75;;;2.31;80.80
26443;BME280;5563;52.296;6.806;2023-01-29T15:57:19;102157.13;;;2.31;80.76
26443;BME280;5563;52.296;6.806;2023-01-29T15:59:56;102161.59;;;2.28;80.59
26443;BME280;5563;52.296;6.806;2023-01-29T16:05:15;102166.16;;;2.21;81.33
26443;BME280;5563;52.296;6.806;2023-01-29T16:07:44;102155.88;;;2.12;81.56
26443;BME280;5563;52.296;6.806;2023-01-29T16:10:20;102160.31;;;2.10;81.80
26443;BME280;5563;52.296;6.806;2023-01-29T16:12:51;102163.84;;;2.09;81.84
26443;BME280;5563;52.296;6.806;2023-01-29T16:15:30;102150.75;;;2.07;81.87